Time;durP1;ratioP1;P1;durP2;ratioP2;P2;SDS_P1;SDS_P2;PMS_P1;PMS_P2;Temp;Humidity;BMP_temperature;BMP_pressure;BME280_temperature;BME280_humidity;BME280_pressure;Samples;Min_cycle;Max_cycle;Signal;HPM_P1;HPM_P2
2022/01/12 00:01:06;;;;;;;8.73;7.28;;;0.40;99.90;;;;;;5056995;28;20018;-78
2022/01/12 00:03:34;;;;;;;9.82;7.25;;;0.40;99.90;;;;;;5050272;28;20080;-78
2022/01/12 00:06:03;;;;;;;10.55;7.47;;;0.30;99.90;;;;;;5048039;28;20013;-78
2022/01/12 00:08:31;;;;;;;7.93;6.55;;;0.20;99.90;;;;;;5038007;28;20021;-77
2022/01/12 00:11:01;;;;;;;10.25;6.38;;;0.20;99.90;;;;;;5033716;28;20025;-78
2022/01/12 00:13:27;;;;;;;7.07;5.82;;;0.20;99.90;;;;;;5024978;28;20032;-78
2022/01/12 00:15:53;;;;;;;7.55;5.90;;;0.20;99.90;;;;;;5036775;28;20029;-78
2022/01/12 00:18:20;;;;;;;7.53;6.20;;;0.20;99.90;;;;;;5019877;28;20136;-78
2022/01/12 00:20:47;;;;;;;9.10;6.95;;;0.20;99.90;;;;;;5034627;28;20068;-77
2022/01/12 00:23:14;;;;;;;7.93;6.80;;;0.20;99.90;;;;;;5034997;28;20034;-78
2022/01/12 00:33:49;;;;;;;8.10;6.93;;;0.20;99.90;;;;;;5033098;28;20075;-77
2022/01/12 00:36:14;;;;;;;9.57;6.68;;;0.10;99.90;;;;;;5034260;28;20116;-77
2022/01/12 00:38:40;;;;;;;9.77;6.50;;;0.00;99.90;;;;;;5040872;28;20139;-77
2022/01/12 00:41:05;;;;;;;9.57;7.03;;;0.00;99.90;;;;;;5040422;28;20034;-77
2022/01/12 00:43:34;;;;;;;9.23;7.10;;;0.00;99.90;;;;;;5037902;28;20021;-79
2022/01/12 00:45:59;;;;;;;7.50;6.32;;;-0.10;99.90;;;;;;5033070;28;20105;-77
2022/01/12 00:48:25;;;;;;;8.38;6.60;;;0.00;99.90;;;;;;5015750;28;20116;-78
2022/01/12 00:50:51;;;;;;;8.95;7.35;;;0.00;99.90;;;;;;5034136;28;20105;-78
2022/01/12 00:53:17;;;;;;;7.10;6.25;;;-0.10;99.90;;;;;;5035670;28;20030;-78
2022/01/12 00:55:43;;;;;;;7.75;5.57;;;-0.10;99.90;;;;;;5035121;28;20024;-77
2022/01/12 00:58:09;;;;;;;8.32;7.22;;;-0.10;99.90;;;;;;5039624;28;20030;-78
2022/01/12 01:00:35;;;;;;;9.93;7.13;;;-0.10;99.90;;;;;;5040313;28;20029;-78
2022/01/12 01:03:01;;;;;;;9.20;7.20;;;-0.10;99.90;;;;;;5038864;28;20065;-78
2022/01/12 01:05:29;;;;;;;9.30;7.45;;;-0.20;99.90;;;;;;5040253;28;20048;-77
2022/01/12 01:07:55;;;;;;;16.25;10.30;;;-0.20;99.90;;;;;;5022861;28;20022;-77
2022/01/12 01:13:06;;;;;;;13.07;8.95;;;-0.10;99.90;;;;;;5039641;28;20033;-78
2022/01/12 01:15:57;;;;;;;19.27;11.18;;;-0.20;99.90;;;;;;5033275;28;20021;-77
2022/01/12 01:26:38;;;;;;;15.23;9.75;;;-0.30;1.00;;;;;;5040426;28;20044;-77
2022/01/12 01:29:04;;;;;;;13.27;10.00;;;-0.40;1.00;;;;;;5032676;28;20025;-77
2022/01/12 01:31:32;;;;;;;11.50;9.40;;;-0.50;1.00;;;;;;5031922;28;20025;-77
2022/01/12 01:34:06;;;;;;;12.52;8.20;;;-0.40;1.00;;;;;;5032062;28;20025;-77
2022/01/12 01:36:34;;;;;;;11.75;8.70;;;-0.40;1.00;;;;;;5014177;28;20478;-77
2022/01/12 01:38:59;;;;;;;10.85;8.35;;;-0.40;1.00;;;;;;5031612;28;20085;-77
2022/01/12 01:41:25;;;;;;;11.02;8.20;;;-0.40;1.00;;;;;;5013701;28;20056;-78
2022/01/12 01:44:32;;;;;;;14.50;8.73;;;-0.30;1.00;;;;;;5014185;28;20036;-77
2022/01/12 01:55:07;;;;;;;9.05;7.15;;;-0.40;1.00;;;;;;5035964;28;20083;-78
2022/01/12 01:57:34;;;;;;;9.57;6.82;;;-0.60;1.00;;;;;;5042728;28;20035;-78
2022/01/12 02:00:00;;;;;;;13.18;7.85;;;-0.60;1.00;;;;;;5037614;28;20031;-77
2022/01/12 02:02:27;;;;;;;9.10;8.18;;;-0.70;1.00;;;;;;5018562;28;20036;-77
2022/01/12 02:04:52;;;;;;;9.25;6.50;;;-0.70;1.00;;;;;;5018474;28;20406;-77
2022/01/12 02:07:18;;;;;;;9.20;7.20;;;-0.60;1.00;;;;;;5034733;28;20026;-77
2022/01/12 02:09:43;;;;;;;8.02;7.10;;;-0.50;1.00;;;;;;5034580;28;20033;-77
2022/01/12 02:12:12;;;;;;;8.90;6.82;;;-0.60;1.00;;;;;;5041464;28;20465;-76
2022/01/12 02:14:39;;;;;;;8.30;7.30;;;-0.50;1.00;;;;;;5034768;28;20104;-77
2022/01/12 02:17:13;;;;;;;9.30;7.55;;;-0.60;1.00;;;;;;5034387;28;20041;-76
2022/01/12 02:35:56;;;;;;;10.10;7.82;;;-0.70;1.00;;;;;;5037116;28;20052;-77
2022/01/12 02:41:07;;;;;;;8.43;7.32;;;-0.80;1.00;;;;;;5037366;28;20473;-78
2022/01/12 02:53:52;;;;;;;8.02;6.95;;;-1.00;1.00;;;;;;5014399;28;20038;-73
2022/01/12 02:56:21;;;;;;;9.40;7.43;;;-0.90;1.00;;;;;;5014552;28;20038;-73
2022/01/12 02:58:48;;;;;;;9.93;8.02;;;-0.90;1.00;;;;;;5014063;28;20034;-72
2022/01/12 03:04:08;;;;;;;11.45;9.48;;;-0.80;1.00;;;;;;5013949;28;20117;-73
2022/01/12 03:06:38;;;;;;;12.30;9.38;;;-0.90;1.00;;;;;;5014164;28;20053;-73
2022/01/12 03:09:05;;;;;;;8.88;7.82;;;-0.80;1.00;;;;;;5013998;28;20497;-75
2022/01/12 03:11:32;;;;;;;11.75;8.75;;;-0.80;1.00;;;;;;5013893;28;20034;-73
2022/01/12 03:13:58;;;;;;;9.63;8.45;;;-0.90;1.00;;;;;;5012533;28;20076;-73
2022/01/12 03:16:25;;;;;;;10.63;7.93;;;-0.90;1.00;;;;;;5029541;28;20033;-72
2022/01/12 03:18:59;;;;;;;20.35;9.07;;;-0.90;1.00;;;;;;5014413;28;20034;-73
2022/01/12 03:21:31;;;;;;;10.35;8.63;;;-0.90;1.00;;;;;;5013901;28;20037;-73
2022/01/12 03:23:58;;;;;;;15.57;10.57;;;-0.90;1.00;;;;;;5013905;28;20038;-73
2022/01/12 03:26:28;;;;;;;10.30;8.10;;;-1.00;1.00;;;;;;5014089;28;20030;-73
2022/01/12 03:28:55;;;;;;;10.18;8.27;;;-1.00;1.00;;;;;;5012925;28;20060;-73
2022/01/12 03:31:27;;;;;;;13.50;8.63;;;-1.00;1.00;;;;;;5012513;28;20076;-73
2022/01/12 03:34:42;;;;;;;12.95;9.32;;;-1.20;1.00;;;;;;5029064;28;20033;-72
2022/01/12 03:39:22;;;;;;;13.88;9.63;;;-1.20;1.00;;;;;;5016414;28;20030;-72
2022/01/12 03:41:48;;;;;;;14.88;9.93;;;-1.10;1.00;;;;;;5016110;28;20034;-73
2022/01/12 03:44:14;;;;;;;11.35;9.02;;;-1.10;1.00;;;;;;5028609;28;20026;-74
2022/01/12 03:46:45;;;;;;;14.57;9.32;;;-1.00;1.00;;;;;;5013574;28;20021;-73
2022/01/12 03:49:11;;;;;;;11.18;8.90;;;-1.10;1.00;;;;;;5013775;28;20022;-74
2022/01/12 03:51:37;;;;;;;12.52;9.60;;;-1.10;1.00;;;;;;5012690;28;20397;-73
2022/01/12 03:54:03;;;;;;;13.63;9.90;;;-1.20;1.00;;;;;;5015959;28;20041;-73
2022/01/12 03:56:28;;;;;;;12.07;8.98;;;-1.20;1.00;;;;;;5019183;28;20041;-73
2022/01/12 03:58:54;;;;;;;15.38;10.32;;;-1.30;1.00;;;;;;5013872;28;20030;-73
2022/01/12 04:01:20;;;;;;;13.65;10.27;;;-1.30;1.00;;;;;;5013269;28;20056;-73
2022/01/12 04:03:57;;;;;;;14.27;9.65;;;-1.30;1.00;;;;;;5013315;28;20029;-73
2022/01/12 04:09:06;;;;;;;17.80;10.40;;;-1.30;1.00;;;;;;5013681;28;20077;-73
2022/01/12 04:11:32;;;;;;;18.42;12.52;;;-1.30;1.00;;;;;;5013055;28;20046;-73
2022/01/12 04:13:57;;;;;;;15.02;10.10;;;-1.40;1.00;;;;;;5012998;28;20036;-73
2022/01/12 04:16:23;;;;;;;14.50;9.60;;;-1.40;1.00;;;;;;5013075;28;20441;-73
2022/01/12 04:18:49;;;;;;;14.68;10.30;;;-1.30;1.00;;;;;;5020961;28;20165;-73
2022/01/12 04:21:14;;;;;;;12.75;10.65;;;-1.30;1.00;;;;;;5014583;28;20030;-73
2022/01/12 04:23:41;;;;;;;12.73;10.25;;;-1.30;1.00;;;;;;5034683;28;20022;-72
2022/01/12 04:26:11;;;;;;;16.20;9.95;;;-1.30;1.00;;;;;;5034293;28;20053;-73
2022/01/12 04:28:39;;;;;;;13.48;9.15;;;-1.40;1.00;;;;;;5048635;28;20014;-73
2022/01/12 04:31:05;;;;;;;12.77;9.30;;;-1.40;1.00;;;;;;5016793;28;20046;-74
2022/01/12 04:33:31;;;;;;;12.82;9.65;;;-1.40;1.00;;;;;;5012727;28;20025;-74
2022/01/12 04:35:57;;;;;;;12.82;10.73;;;-1.40;1.00;;;;;;5011672;28;20500;-74
2022/01/12 04:38:29;;;;;;;13.18;9.88;;;-1.30;1.00;;;;;;5012570;28;20053;-73
2022/01/12 04:40:55;;;;;;;13.15;10.20;;;-1.40;1.00;;;;;;5012779;28;20022;-73
2022/01/12 04:43:23;;;;;;;14.90;10.23;;;-1.50;1.00;;;;;;5012721;28;20068;-72
2022/01/12 04:50:46;;;;;;;16.10;9.60;;;-1.20;1.00;;;;;;5019012;28;20107;-73
2022/01/12 04:53:13;;;;;;;16.00;10.40;;;-1.30;1.00;;;;;;5023351;28;20061;-72
2022/01/12 04:55:39;;;;;;;15.55;10.68;;;-1.40;1.00;;;;;;5029047;28;20025;-72
2022/01/12 04:58:06;;;;;;;15.40;11.20;;;-1.50;1.00;;;;;;5015060;28;20071;-73
2022/01/12 05:00:35;;;;;;;13.10;10.73;;;-1.50;1.00;;;;;;5012945;28;20045;-72
2022/01/12 05:13:52;;;;;;;11.65;10.13;;;-1.50;1.00;;;;;;5019402;28;20037;-73
2022/01/12 05:16:20;;;;;;;15.43;12.10;;;-1.60;1.00;;;;;;5022203;28;20025;-73
2022/01/12 05:18:47;;;;;;;17.15;11.77;;;-1.60;1.00;;;;;;5012841;28;20401;-72
2022/01/12 05:21:14;;;;;;;16.40;11.88;;;-1.40;1.00;;;;;;5032098;28;20018;-72
2022/01/12 05:23:40;;;;;;;17.52;10.32;;;-1.40;1.00;;;;;;5033593;28;20030;-72
2022/01/12 05:26:07;;;;;;;16.55;11.70;;;-1.40;1.00;;;;;;5032711;28;20472;-73
2022/01/12 05:28:34;;;;;;;15.05;12.00;;;-1.40;1.00;;;;;;5017443;28;20022;-74
2022/01/12 05:31:01;;;;;;;19.15;12.30;;;-1.50;1.00;;;;;;5014397;28;20077;-74
2022/01/12 05:33:27;;;;;;;16.98;12.00;;;-1.60;1.00;;;;;;5015620;28;20030;-73
2022/01/12 05:35:55;;;;;;;16.55;12.20;;;-1.60;1.00;;;;;;5014113;28;20053;-73
2022/01/12 05:38:21;;;;;;;15.45;12.65;;;-1.60;1.00;;;;;;5016013;28;20026;-73
2022/01/12 05:40:49;;;;;;;14.50;11.27;;;-1.60;1.00;;;;;;5031255;28;20030;-72
2022/01/12 05:43:20;;;;;;;16.80;10.80;;;-1.60;1.00;;;;;;5034654;28;20322;-73
2022/01/12 05:45:46;;;;;;;17.15;11.23;;;-1.60;1.00;;;;;;5034131;28;20033;-73
2022/01/12 05:50:41;;;;;;;16.15;11.68;;;-1.70;1.00;;;;;;5017352;28;20034;-73
2022/01/12 05:53:07;;;;;;;16.70;12.20;;;-1.70;1.00;;;;;;5016337;28;20245;-73
2022/01/12 05:55:33;;;;;;;16.77;12.55;;;-1.70;1.00;;;;;;5015955;28;20021;-73
2022/01/12 05:57:59;;;;;;;14.25;11.80;;;-1.70;1.00;;;;;;5016196;28;20026;-73
2022/01/12 06:00:27;;;;;;;15.38;11.75;;;-1.70;1.00;;;;;;5014327;28;20026;-74
2022/01/12 06:02:53;;;;;;;15.38;11.50;;;-1.70;1.00;;;;;;5015744;28;20108;-72
2022/01/12 06:05:21;;;;;;;17.13;12.40;;;-1.70;1.00;;;;;;5016296;28;20026;-72
2022/01/12 06:07:48;;;;;;;18.25;11.48;;;-1.60;1.00;;;;;;5015894;28;20399;-74
2022/01/12 06:10:14;;;;;;;16.92;11.10;;;-1.50;1.00;;;;;;5016115;28;20040;-73
2022/01/12 06:12:40;;;;;;;14.30;11.02;;;-1.50;1.00;;;;;;5015288;28;20423;-73
2022/01/12 06:15:06;;;;;;;15.85;10.88;;;-1.50;1.00;;;;;;5015915;28;20426;-72
2022/01/12 06:17:32;;;;;;;18.05;11.45;;;-1.40;1.00;;;;;;5015797;28;20030;-73
2022/01/12 06:19:58;;;;;;;16.83;11.48;;;-1.40;1.00;;;;;;5015102;28;20030;-73
2022/01/12 06:22:24;;;;;;;22.63;14.65;;;-1.50;1.00;;;;;;5016186;28;20555;-73
2022/01/12 06:24:50;;;;;;;14.48;11.43;;;-1.40;1.00;;;;;;5016106;28;20101;-73
2022/01/12 06:27:18;;;;;;;14.57;12.50;;;-1.50;1.00;;;;;;5016374;28;20022;-73
2022/01/12 06:29:51;;;;;;;16.83;11.52;;;-1.50;1.00;;;;;;5015169;28;20546;-73
2022/01/12 06:32:17;;;;;;;21.98;13.20;;;-1.60;1.00;;;;;;5015057;28;20030;-72
2022/01/12 06:34:43;;;;;;;18.08;12.13;;;-1.60;1.00;;;;;;5015324;28;20021;-73
2022/01/12 06:37:09;;;;;;;20.83;12.68;;;-1.70;1.00;;;;;;5015847;28;20026;-74
2022/01/12 06:39:34;;;;;;;22.63;13.38;;;-1.60;1.00;;;;;;5015282;28;20084;-73
2022/01/12 06:42:00;;;;;;;23.27;13.57;;;-1.20;1.00;;;;;;5015114;28;20033;-74
2022/01/12 06:44:26;;;;;;;16.02;11.98;;;-1.20;1.00;;;;;;5013597;28;20037;-74
2022/01/12 06:46:54;;;;;;;15.93;11.65;;;-1.30;1.00;;;;;;5014881;28;20076;-74
2022/01/12 06:49:20;;;;;;;22.10;13.82;;;-1.40;1.00;;;;;;5014106;28;20390;-74
2022/01/12 06:51:46;;;;;;;22.92;12.82;;;-1.50;1.00;;;;;;5014433;28;20029;-75
2022/01/12 06:54:13;;;;;;;18.15;12.13;;;-1.50;1.00;;;;;;5021760;28;20080;-74
2022/01/12 06:56:39;;;;;;;17.10;11.93;;;-1.40;1.00;;;;;;5020124;28;20094;-74
2022/01/12 06:59:06;;;;;;;21.30;13.35;;;-1.40;1.00;;;;;;5015835;28;20034;-73
2022/01/12 07:01:32;;;;;;;14.55;11.90;;;-1.20;88.00;;;;;;5016097;28;20124;-73
2022/01/12 07:03:58;;;;;;;14.25;11.30;;;-1.30;99.90;;;;;;5017146;28;20021;-72
2022/01/12 07:06:24;;;;;;;22.13;12.32;;;-1.40;99.90;;;;;;5016640;28;20029;-74
2022/01/12 07:08:50;;;;;;;19.50;12.90;;;-1.40;99.90;;;;;;5016981;28;20041;-73
2022/01/12 07:11:16;;;;;;;27.13;12.48;;;-1.50;97.90;;;;;;5019365;28;20026;-73
2022/01/12 07:13:42;;;;;;;20.83;12.07;;;-1.50;99.90;;;;;;5021268;28;20029;-72
2022/01/12 07:16:08;;;;;;;24.08;12.57;;;-1.50;99.90;;;;;;5018791;28;20026;-73
2022/01/12 07:18:34;;;;;;;19.23;12.75;;;-1.50;98.30;;;;;;5019633;28;20037;-73
2022/01/12 07:20:59;;;;;;;17.38;13.27;;;-1.50;99.90;;;;;;5019643;28;20034;-72
2022/01/12 07:23:26;;;;;;;22.23;13.73;;;-1.50;99.90;;;;;;5019892;28;20093;-72
2022/01/12 07:25:52;;;;;;;21.88;13.00;;;-1.40;99.90;;;;;;5032740;28;20030;-72
2022/01/12 07:28:18;;;;;;;20.50;11.98;;;-1.50;99.90;;;;;;5034584;28;20010;-73
2022/01/12 07:30:43;;;;;;;23.90;13.60;;;-1.40;99.90;;;;;;5035836;28;20030;-73
2022/01/12 07:33:09;;;;;;;20.98;14.20;;;-1.40;99.90;;;;;;5023847;28;20137;-73
2022/01/12 07:35:35;;;;;;;19.90;13.18;;;-1.30;99.90;;;;;;5015578;28;20037;-73
2022/01/12 07:38:00;;;;;;;19.08;12.48;;;-1.30;99.90;;;;;;5015170;28;20053;-73
2022/01/12 07:40:26;;;;;;;20.08;13.55;;;-1.30;99.90;;;;;;5014524;28;20026;-73
2022/01/12 07:42:52;;;;;;;14.55;12.60;;;-1.20;99.90;;;;;;5014175;28;20053;-73
2022/01/12 07:45:18;;;;;;;20.50;13.82;;;-1.20;99.90;;;;;;5014059;28;20434;-72
2022/01/12 07:47:44;;;;;;;22.25;16.23;;;-1.10;99.90;;;;;;5014691;28;20076;-72
2022/01/12 07:50:10;;;;;;;19.13;14.45;;;-0.90;99.90;;;;;;5014763;28;20022;-73
2022/01/12 07:52:37;;;;;;;19.92;13.98;;;-0.70;99.90;;;;;;5014261;28;20038;-74
2022/01/12 07:55:04;;;;;;;22.08;14.05;;;-0.70;99.90;;;;;;5013929;28;20045;-72
2022/01/12 07:57:30;;;;;;;21.08;14.60;;;-0.50;99.90;;;;;;5014289;28;20437;-73
2022/01/12 07:59:55;;;;;;;23.23;15.55;;;-0.30;99.90;;;;;;5012802;28;20080;-73
2022/01/12 08:02:21;;;;;;;19.67;14.10;;;-0.20;99.90;;;;;;5014167;28;20030;-74
2022/01/12 08:04:47;;;;;;;18.88;15.18;;;0.00;99.90;;;;;;5014275;28;20037;-73
2022/01/12 08:07:12;;;;;;;20.38;15.55;;;0.20;99.90;;;;;;5014336;28;20026;-74
2022/01/12 08:09:39;;;;;;;18.60;13.88;;;0.20;99.90;;;;;;5015736;28;20109;-73
2022/01/12 08:12:05;;;;;;;22.15;14.13;;;0.30;99.90;;;;;;5015521;28;20022;-74
2022/01/12 08:14:31;;;;;;;18.73;14.02;;;0.30;99.90;;;;;;5015583;28;20026;-72
2022/01/12 08:16:56;;;;;;;18.45;14.85;;;0.30;99.90;;;;;;5015182;28;20418;-74
2022/01/12 08:19:23;;;;;;;20.65;14.95;;;0.20;99.90;;;;;;5015806;28;20030;-73
2022/01/12 08:21:49;;;;;;;21.27;14.93;;;0.10;99.90;;;;;;5015419;28;20034;-73
2022/01/12 08:24:16;;;;;;;19.55;15.73;;;0.00;99.90;;;;;;5016308;28;20049;-73
2022/01/12 08:26:43;;;;;;;19.98;15.05;;;0.20;99.90;;;;;;5016494;28;20018;-74
2022/01/12 08:29:11;;;;;;;19.02;15.07;;;0.40;99.90;;;;;;5015502;28;20037;-73
2022/01/12 08:31:36;;;;;;;21.95;16.63;;;0.50;99.90;;;;;;5015649;28;20022;-72
2022/01/12 08:34:03;;;;;;;20.17;14.57;;;0.40;99.90;;;;;;5015254;28;20064;-72
2022/01/12 08:36:29;;;;;;;18.75;14.63;;;0.40;99.90;;;;;;5014683;28;20040;-73
2022/01/12 08:38:55;;;;;;;17.20;14.27;;;0.50;99.90;;;;;;5014699;28;20034;-72
2022/01/12 08:41:21;;;;;;;18.00;13.82;;;0.70;99.90;;;;;;5014369;28;20034;-73
2022/01/12 08:43:47;;;;;;;18.92;14.52;;;0.70;99.90;;;;;;5014381;28;20359;-73
2022/01/12 08:46:13;;;;;;;17.25;14.05;;;0.70;99.90;;;;;;5014658;28;20386;-73
2022/01/12 08:48:39;;;;;;;20.10;14.00;;;0.60;99.90;;;;;;5014548;28;20033;-72
2022/01/12 08:51:04;;;;;;;21.73;14.70;;;0.50;99.90;;;;;;5013941;28;20032;-72
2022/01/12 08:53:30;;;;;;;18.90;14.32;;;0.50;99.90;;;;;;5047726;23;20057;-76
2022/01/12 08:55:56;;;;;;;23.70;13.98;;;0.50;99.90;;;;;;5029881;28;20045;-77
2022/01/12 08:58:21;;;;;;;18.52;14.32;;;0.50;99.90;;;;;;5030213;28;20029;-77
2022/01/12 09:00:47;;;;;;;20.25;15.05;;;0.50;99.90;;;;;;5025093;28;20071;-77
2022/01/12 09:03:13;;;;;;;21.23;16.63;;;0.50;99.90;;;;;;5023652;28;20029;-77
2022/01/12 09:05:39;;;;;;;21.40;15.45;;;0.60;99.90;;;;;;5025289;28;20037;-77
2022/01/12 09:08:06;;;;;;;18.10;14.52;;;0.60;99.90;;;;;;5022952;28;20033;-77
2022/01/12 09:10:32;;;;;;;22.23;15.30;;;0.60;99.90;;;;;;5018967;28;20393;-77
2022/01/12 09:12:58;;;;;;;18.60;14.40;;;0.70;99.90;;;;;;5016667;28;20025;-77
2022/01/12 09:15:25;;;;;;;17.48;13.95;;;0.70;99.90;;;;;;5020109;28;20521;-77
2022/01/12 09:17:52;;;;;;;23.38;15.10;;;0.70;99.90;;;;;;5020830;28;20018;-78
2022/01/12 09:20:18;;;;;;;24.95;15.68;;;0.70;99.90;;;;;;5017743;28;20489;-77
2022/01/12 09:22:44;;;;;;;19.60;15.43;;;0.70;99.90;;;;;;5016779;28;20026;-77
2022/01/12 09:25:10;;;;;;;23.40;15.43;;;0.70;99.90;;;;;;5016060;28;20026;-77
2022/01/12 09:27:37;;;;;;;19.38;15.48;;;0.70;99.90;;;;;;5016300;28;20056;-76
2022/01/12 09:30:04;;;;;;;22.83;16.23;;;0.90;99.90;;;;;;5015405;28;20025;-78
2022/01/12 09:32:29;;;;;;;16.75;14.38;;;0.80;99.90;;;;;;5017655;28;20030;-78
2022/01/12 09:34:55;;;;;;;19.67;14.63;;;0.80;99.90;;;;;;5017699;28;20160;-78
2022/01/12 09:37:21;;;;;;;17.95;14.50;;;0.90;99.90;;;;;;5019216;28;20027;-77
2022/01/12 09:39:47;;;;;;;43.53;27.75;;;0.90;99.90;;;;;;5018865;28;20065;-77
2022/01/12 09:42:13;;;;;;;19.55;15.70;;;0.90;99.90;;;;;;5016095;28;20088;-79
2022/01/12 09:44:44;;;;;;;20.05;16.23;;;1.10;99.90;;;;;;5018145;28;20053;-79
2022/01/12 09:47:10;;;;;;;17.25;14.82;;;1.20;99.90;;;;;;5017210;28;20405;-76
2022/01/12 09:49:35;;;;;;;18.65;14.93;;;1.30;99.90;;;;;;5016408;28;20080;-77
2022/01/12 09:52:02;;;;;;;18.92;15.18;;;1.60;99.90;;;;;;5018190;28;20026;-77
2022/01/12 09:54:28;;;;;;;17.67;14.50;;;1.70;99.90;;;;;;5016252;28;20113;-77
2022/01/12 09:56:54;;;;;;;17.77;13.10;;;1.80;99.90;;;;;;5016511;28;20389;-77
2022/01/12 09:59:22;;;;;;;15.82;12.93;;;1.90;99.90;;;;;;5016987;28;20030;-77
2022/01/12 10:01:48;;;;;;;17.52;13.95;;;1.90;99.90;;;;;;5017062;28;20030;-77
2022/01/12 10:04:16;;;;;;;16.65;13.68;;;1.90;99.90;;;;;;5015204;28;20022;-78
2022/01/12 10:06:47;;;;;;;19.13;14.02;;;2.00;99.90;;;;;;5016501;28;20373;-79
2022/01/12 10:09:15;;;;;;;21.75;15.27;;;2.00;99.90;;;;;;5016243;28;20425;-77
2022/01/12 10:11:56;;;;;;;20.38;14.63;;;2.00;99.90;;;;;;5017537;28;20022;-77
2022/01/12 10:14:23;;;;;;;17.63;14.27;;;2.10;99.90;;;;;;5020854;28;20022;-77
2022/01/12 10:16:50;;;;;;;19.65;15.20;;;2.10;99.90;;;;;;5019964;28;20026;-78
2022/01/12 10:19:25;;;;;;;16.40;14.18;;;2.10;99.90;;;;;;5016851;28;20084;-77
2022/01/12 10:21:51;;;;;;;16.00;13.82;;;2.10;99.90;;;;;;5015815;28;20367;-78
2022/01/12 10:24:19;;;;;;;20.00;13.50;;;2.10;99.90;;;;;;5014309;28;20049;-78
2022/01/12 10:26:46;;;;;;;20.30;13.27;;;2.00;99.90;;;;;;5016277;28;20086;-77
2022/01/12 10:29:13;;;;;;;19.13;14.20;;;2.10;99.90;;;;;;5015914;28;20490;-77
2022/01/12 10:31:51;;;;;;;15.50;13.18;;;2.20;99.90;;;;;;5014726;28;20037;-78
2022/01/12 10:34:19;;;;;;;20.23;14.40;;;2.20;99.90;;;;;;5015828;28;20102;-78
2022/01/12 10:36:46;;;;;;;21.10;13.75;;;2.30;99.90;;;;;;5017291;28;20029;-78
2022/01/12 10:39:14;;;;;;;16.13;13.25;;;2.00;99.90;;;;;;5031495;28;20065;-77
2022/01/12 10:42:01;;;;;;;16.17;12.77;;;2.00;99.90;;;;;;5020419;28;20025;-78
2022/01/12 10:44:30;;;;;;;18.35;13.63;;;2.10;99.90;;;;;;5037377;28;20026;-77
2022/01/12 10:47:09;;;;;;;18.48;13.48;;;2.00;99.90;;;;;;5037127;28;20009;-77
2022/01/12 10:49:36;;;;;;;15.85;13.55;;;2.10;99.90;;;;;;5018395;28;20029;-77
2022/01/12 10:52:05;;;;;;;15.30;12.65;;;2.10;99.90;;;;;;5015746;28;20065;-78
2022/01/12 10:54:48;;;;;;;17.30;14.68;;;2.20;99.90;;;;;;5014958;28;20038;-77
2022/01/12 10:57:26;;;;;;;14.38;12.45;;;2.30;99.90;;;;;;5017069;28;20042;-77
2022/01/12 11:00:19;;;;;;;17.90;15.18;;;2.40;99.90;;;;;;5017499;28;20057;-78
2022/01/12 11:02:49;;;;;;;16.08;14.20;;;2.40;99.90;;;;;;5019536;28;20045;-78
2022/01/12 11:05:16;;;;;;;21.63;14.00;;;2.40;99.90;;;;;;5024701;28;20030;-77
2022/01/12 11:07:41;;;;;;;16.27;13.13;;;2.20;99.90;;;;;;5023274;28;20033;-78
2022/01/12 11:10:09;;;;;;;18.00;14.35;;;2.40;99.90;;;;;;5020360;28;20022;-78
2022/01/12 11:12:35;;;;;;;17.52;12.90;;;2.30;99.90;;;;;;5019822;28;20026;-77
2022/01/12 11:15:08;;;;;;;17.33;13.93;;;2.50;99.90;;;;;;5019926;28;20025;-78
2022/01/12 11:17:34;;;;;;;18.85;13.85;;;2.50;99.90;;;;;;5019797;28;20049;-77
2022/01/12 11:20:09;;;;;;;22.17;15.85;;;2.70;99.90;;;;;;5020483;28;20481;-78
2022/01/12 11:22:44;;;;;;;14.60;13.10;;;2.70;99.90;;;;;;5026445;28;20034;-76
2022/01/12 11:25:23;;;;;;;18.70;13.27;;;2.80;99.90;;;;;;5026501;28;20046;-77
2022/01/12 11:28:02;;;;;;;16.23;11.90;;;2.90;99.90;;;;;;5026253;28;20018;-77
2022/01/12 11:30:28;;;;;;;17.88;13.27;;;2.90;99.90;;;;;;5027459;28;20024;-77
2022/01/12 11:33:03;;;;;;;14.55;12.20;;;3.00;99.90;;;;;;5019382;28;20046;-78
2022/01/12 11:35:36;;;;;;;12.68;11.38;;;2.90;99.90;;;;;;5015421;28;20195;-78
2022/01/12 11:38:04;;;;;;;14.10;11.40;;;3.10;99.90;;;;;;5017079;28;20030;-78
2022/01/12 11:40:42;;;;;;;11.93;10.80;;;3.00;99.90;;;;;;5015418;28;20068;-78
2022/01/12 11:43:20;;;;;;;12.75;11.40;;;3.00;99.90;;;;;;5019870;28;20397;-78
2022/01/12 11:45:58;;;;;;;13.10;11.30;;;2.90;99.90;;;;;;5023162;28;20030;-76
2022/01/12 11:48:48;;;;;;;13.43;11.07;;;3.00;99.90;;;;;;5026365;28;20131;-77
2022/01/12 11:51:18;;;;;;;13.32;10.48;;;2.90;99.90;;;;;;5029708;28;20022;-77
2022/01/12 11:53:55;;;;;;;13.27;9.90;;;3.00;99.90;;;;;;5030396;28;20072;-78
2022/01/12 11:56:25;;;;;;;12.00;10.00;;;3.00;99.90;;;;;;5015882;28;20022;-77
2022/01/12 11:58:53;;;;;;;13.30;10.32;;;3.00;99.90;;;;;;5017162;28;20034;-77
2022/01/12 12:01:22;;;;;;;15.60;11.80;;;3.00;99.90;;;;;;5014407;28;20033;-78
2022/01/12 12:04:02;;;;;;;13.65;10.02;;;2.70;99.90;;;;;;5015170;28;20029;-78
2022/01/12 12:06:29;;;;;;;13.57;12.23;;;2.90;99.90;;;;;;5017757;28;20061;-77
2022/01/12 12:09:13;;;;;;;18.85;11.82;;;2.70;99.90;;;;;;5017339;28;20026;-78
2022/01/12 12:11:39;;;;;;;13.18;10.88;;;2.70;99.90;;;;;;5018658;28;20033;-78
2022/01/12 12:14:07;;;;;;;12.90;10.18;;;2.80;99.90;;;;;;5018865;28;20030;-77
2022/01/12 12:16:34;;;;;;;10.88;9.75;;;3.00;99.90;;;;;;5019630;28;20097;-78
2022/01/12 12:19:04;;;;;;;13.75;9.20;;;3.00;99.90;;;;;;5021354;28;20022;-78
2022/01/12 12:21:32;;;;;;;11.45;10.35;;;2.90;99.90;;;;;;5019383;28;20021;-78
2022/01/12 12:24:12;;;;;;;13.73;10.80;;;3.00;99.90;;;;;;5016699;28;20371;-77
2022/01/12 12:26:48;;;;;;;13.40;11.77;;;3.00;99.90;;;;;;5019384;28;20080;-76
2022/01/12 12:29:16;;;;;;;13.73;11.43;;;3.00;99.90;;;;;;5018312;28;20084;-77
2022/01/12 12:31:46;;;;;;;13.10;9.65;;;3.00;99.90;;;;;;5018837;28;20026;-78
2022/01/12 12:34:12;;;;;;;13.05;10.77;;;3.10;99.90;;;;;;5017115;28;20022;-77
2022/01/12 12:36:37;;;;;;;12.13;10.88;;;3.10;99.90;;;;;;5017923;28;20034;-77
2022/01/12 12:39:09;;;;;;;16.92;11.63;;;3.20;99.90;;;;;;5019381;28;20413;-78
2022/01/12 12:41:40;;;;;;;15.10;11.43;;;3.10;99.90;;;;;;5017800;28;20018;-77
2022/01/12 12:44:06;;;;;;;17.40;11.82;;;3.10;99.90;;;;;;5019862;28;20041;-77
2022/01/12 12:46:32;;;;;;;16.30;11.35;;;3.10;99.90;;;;;;5019577;28;20022;-77
2022/01/12 12:48:58;;;;;;;13.73;10.25;;;3.10;99.90;;;;;;5019224;28;20026;-77
2022/01/12 12:51:23;;;;;;;15.48;12.48;;;3.20;99.90;;;;;;5017804;28;20538;-78
2022/01/12 12:53:54;;;;;;;14.50;11.90;;;3.30;99.90;;;;;;5015739;28;20042;-77
2022/01/12 12:56:23;;;;;;;14.75;10.10;;;3.50;99.90;;;;;;5021273;28;20022;-77
2022/01/12 12:58:53;;;;;;;14.32;11.77;;;3.40;99.90;;;;;;5028100;28;20410;-77
2022/01/12 13:01:21;;;;;;;11.90;10.52;;;3.40;99.90;;;;;;5017675;28;20379;-77
2022/01/12 13:03:49;;;;;;;11.98;10.70;;;3.10;99.90;;;;;;5018548;28;20041;-76
2022/01/12 13:06:30;;;;;;;14.57;11.43;;;3.10;99.90;;;;;;5017689;28;20018;-77
2022/01/12 13:08:58;;;;;;;12.70;11.18;;;3.30;99.90;;;;;;5018006;28;20030;-76
2022/01/12 13:11:28;;;;;;;12.07;10.05;;;3.20;99.90;;;;;;5017579;28;20018;-76
2022/01/12 13:14:02;;;;;;;14.63;10.07;;;3.20;99.90;;;;;;5016734;28;20025;-76
2022/01/12 13:16:28;;;;;;;19.40;11.02;;;3.30;99.90;;;;;;5016813;28;20422;-77
2022/01/12 13:19:04;;;;;;;14.32;11.13;;;3.40;99.90;;;;;;5017415;28;20025;-77
2022/01/12 13:21:32;;;;;;;12.85;11.50;;;3.40;99.90;;;;;;5017830;28;20022;-78
2022/01/12 13:23:59;;;;;;;11.80;10.57;;;3.40;99.90;;;;;;5018391;28;20309;-78
2022/01/12 13:26:31;;;;;;;13.40;10.57;;;3.30;99.90;;;;;;5017380;28;20033;-77
2022/01/12 13:28:58;;;;;;;11.63;9.75;;;3.40;99.90;;;;;;5000457;28;20113;-80
2022/01/12 13:31:24;;;;;;;11.50;10.07;;;3.40;99.90;;;;;;5017958;28;20087;-79
2022/01/12 13:33:52;;;;;;;13.07;10.68;;;3.40;99.90;;;;;;5020543;28;20029;-77
2022/01/12 13:36:19;;;;;;;14.13;11.15;;;3.20;99.90;;;;;;5020494;28;20061;-78
2022/01/12 13:39:04;;;;;;;13.43;11.45;;;3.20;99.90;;;;;;5024376;28;20030;-77
2022/01/12 13:41:32;;;;;;;11.57;10.30;;;3.00;99.90;;;;;;5028634;28;20033;-78
2022/01/12 13:44:08;;;;;;;14.10;11.32;;;2.90;99.90;;;;;;5027314;28;20134;-78
2022/01/12 13:46:43;;;;;;;16.17;11.13;;;3.00;99.90;;;;;;5027184;28;20081;-77
2022/01/12 13:51:42;;;;;;;16.73;11.70;;;3.00;99.90;;;;;;5024410;28;20018;-78
2022/01/12 13:54:14;;;;;;;17.70;12.30;;;2.90;99.90;;;;;;5023117;28;20053;-78
2022/01/12 13:56:43;;;;;;;11.52;10.32;;;2.90;99.90;;;;;;5022676;28;20079;-78
2022/01/12 13:59:10;;;;;;;12.85;11.13;;;3.00;99.90;;;;;;5023514;28;20494;-77
2022/01/12 14:01:39;;;;;;;13.70;10.13;;;3.00;99.90;;;;;;5028081;28;20014;-78
2022/01/12 14:06:43;;;;;;;15.15;12.05;;;3.00;99.90;;;;;;5026305;28;20022;-78
2022/01/12 14:09:22;;;;;;;11.65;10.45;;;3.00;99.90;;;;;;5025000;28;20010;-78
2022/01/12 14:11:49;;;;;;;13.95;11.80;;;3.00;99.90;;;;;;5023884;28;20050;-77
2022/01/12 14:14:16;;;;;;;13.30;11.25;;;2.90;99.90;;;;;;5023057;28;20110;-77